Time;durP1;ratioP1;P1;durP2;ratioP2;P2;SDS_P1;SDS_P2;PMS_P1;PMS_P2;Temp;Humidity;BMP_temperature;BMP_pressure;BME280_temperature;BME280_humidity;BME280_pressure;Samples;Min_cycle;Max_cycle;Signal;HPM_P1;HPM_P2
2022/07/11 00:01:34;;;;;;;1.33;1.23;;;21.00;58.20;;;;;;5011625;28;20219;-67
2022/07/11 00:03:59;;;;;;;1.27;1.17;;;21.00;58.20;;;;;;5011713;28;20220;-67
2022/07/11 00:06:25;;;;;;;1.50;1.40;;;21.00;58.20;;;;;;5011448;28;20176;-67
2022/07/11 00:08:50;;;;;;;1.50;1.40;;;21.00;58.20;;;;;;5011977;28;20169;-67
2022/07/11 00:11:16;;;;;;;2.33;1.63;;;21.00;58.90;;;;;;5012170;28;20176;-67
2022/07/11 00:13:41;;;;;;;1.50;1.40;;;21.00;58.30;;;;;;5011361;28;20208;-67
2022/07/11 00:16:07;;;;;;;1.35;1.25;;;21.00;58.30;;;;;;5012105;28;20196;-68
2022/07/11 00:18:32;;;;;;;2.38;1.48;;;21.00;58.30;;;;;;5012004;28;20538;-69
2022/07/11 00:20:58;;;;;;;1.30;1.20;;;21.00;58.30;;;;;;5011016;28;20238;-68
2022/07/11 00:23:23;;;;;;;1.40;1.30;;;21.00;58.30;;;;;;5011943;28;20180;-68
2022/07/11 00:25:49;;;;;;;2.55;1.55;;;21.00;58.30;;;;;;4996336;28;20263;-67
2022/07/11 00:28:14;;;;;;;1.45;1.33;;;21.00;58.30;;;;;;5014888;28;20172;-67
2022/07/11 00:30:40;;;;;;;1.50;1.40;;;21.00;58.30;;;;;;5015492;28;20176;-67
2022/07/11 00:33:05;;;;;;;2.17;1.40;;;21.00;58.30;;;;;;5015576;28;20208;-67
2022/07/11 00:35:31;;;;;;;2.13;1.50;;;21.00;58.30;;;;;;5014870;28;20172;-68
2022/07/11 00:37:57;;;;;;;1.73;1.42;;;21.00;58.30;;;;;;5015072;28;20695;-67
2022/07/11 00:40:22;;;;;;;2.85;1.70;;;21.00;58.30;;;;;;5015799;28;20255;-68
2022/07/11 00:42:48;;;;;;;1.30;1.20;;;20.90;58.20;;;;;;5014479;28;20734;-68
2022/07/11 00:45:13;;;;;;;1.65;1.42;;;20.90;58.20;;;;;;5015445;28;20223;-67
2022/07/11 00:47:39;;;;;;;1.80;1.40;;;20.90;58.30;;;;;;5015307;28;20169;-67
2022/07/11 00:50:05;;;;;;;3.72;1.50;;;20.90;58.20;;;;;;5014516;28;20226;-66
2022/07/11 00:52:30;;;;;;;1.60;1.50;;;21.00;58.30;;;;;;5015241;28;20181;-66
2022/07/11 00:54:56;;;;;;;1.40;1.20;;;20.90;58.30;;;;;;5014835;28;20253;-67
2022/07/11 00:57:21;;;;;;;2.25;1.38;;;21.00;58.40;;;;;;5014699;28;20279;-67
2022/07/11 00:59:47;;;;;;;1.95;1.27;;;20.90;58.40;;;;;;5015041;28;20669;-67
2022/07/11 01:02:13;;;;;;;1.60;1.50;;;20.90;58.40;;;;;;4981408;28;20212;-67
2022/07/11 01:04:38;;;;;;;1.73;1.15;;;20.90;58.40;;;;;;5014034;28;20275;-67
2022/07/11 01:07:04;;;;;;;1.65;1.48;;;20.90;58.40;;;;;;5014917;28;20499;-67
2022/07/11 01:09:30;;;;;;;1.42;1.20;;;21.00;58.40;;;;;;5014669;28;20607;-66
2022/07/11 01:11:55;;;;;;;1.27;1.15;;;20.90;58.30;;;;;;4997167;28;20180;-67
2022/07/11 01:14:21;;;;;;;2.25;1.20;;;20.90;58.40;;;;;;5015076;28;20173;-67
2022/07/11 01:16:46;;;;;;;1.17;1.08;;;20.90;58.30;;;;;;5013968;28;20430;-68
2022/07/11 01:19:12;;;;;;;1.65;1.02;;;20.90;58.40;;;;;;5014830;28;20172;-68
2022/07/11 01:21:38;;;;;;;1.48;1.30;;;20.90;58.40;;;;;;5014407;28;20203;-67
2022/07/11 01:24:05;;;;;;;1.13;1.02;;;20.90;58.40;;;;;;5013835;28;20184;-67
2022/07/11 01:26:32;;;;;;;1.58;1.20;;;20.90;58.40;;;;;;5014557;28;20173;-66
2022/07/11 01:29:08;;;;;;;1.02;1.02;;;20.90;58.40;;;;;;5014400;28;20192;-66
2022/07/11 01:31:34;;;;;;;1.35;1.25;;;20.90;58.40;;;;;;5014149;28;20546;-67
2022/07/11 01:34:00;;;;;;;1.27;1.20;;;20.90;58.40;;;;;;5014155;28;20229;-67
2022/07/11 01:36:26;;;;;;;1.70;1.42;;;20.90;58.40;;;;;;5013450;28;20179;-67
2022/07/11 01:38:51;;;;;;;1.27;1.10;;;21.00;58.50;;;;;;5013770;28;20208;-67
2022/07/11 01:41:17;;;;;;;0.90;0.90;;;20.90;58.40;;;;;;5014042;28;20650;-67
2022/07/11 01:43:42;;;;;;;0.95;0.95;;;20.90;58.40;;;;;;5014081;28;20173;-67
2022/07/11 01:46:08;;;;;;;1.33;1.23;;;20.90;58.40;;;;;;5013369;28;20195;-66
2022/07/11 01:48:33;;;;;;;1.38;1.10;;;20.90;58.40;;;;;;5014326;28;20191;-66
2022/07/11 01:50:59;;;;;;;1.30;1.20;;;20.90;58.40;;;;;;5013875;28;20184;-66
2022/07/11 01:53:24;;;;;;;1.40;1.30;;;20.90;58.50;;;;;;4995877;28;20276;-66
2022/07/11 01:55:50;;;;;;;2.55;1.23;;;20.90;58.50;;;;;;5013900;28;20177;-66
2022/07/11 01:58:16;;;;;;;2.45;1.25;;;20.90;58.50;;;;;;5014108;28;20199;-66
2022/07/11 02:00:42;;;;;;;0.90;0.90;;;20.90;58.50;;;;;;5013165;28;20200;-67
2022/07/11 02:03:08;;;;;;;1.30;1.13;;;20.90;58.50;;;;;;5013887;28;20243;-67
2022/07/11 02:05:33;;;;;;;0.90;0.90;;;20.90;58.50;;;;;;5013782;28;20667;-67
2022/07/11 02:08:11;;;;;;;1.23;1.10;;;20.90;58.50;;;;;;5013273;28;20619;-67
2022/07/11 02:10:41;;;;;;;1.05;0.98;;;20.90;58.50;;;;;;5014089;28;20226;-67
2022/07/11 02:13:06;;;;;;;1.20;1.10;;;20.90;58.50;;;;;;5012985;28;20184;-68
2022/07/11 02:15:32;;;;;;;1.33;1.23;;;20.90;58.50;;;;;;5013947;28;20183;-67
2022/07/11 02:17:57;;;;;;;1.10;1.00;;;20.90;58.50;;;;;;5013299;28;20187;-68
2022/07/11 02:20:23;;;;;;;1.33;1.10;;;20.80;58.50;;;;;;5013220;28;20173;-68
2022/07/11 02:22:49;;;;;;;1.08;1.00;;;20.90;58.50;;;;;;5013542;28;20614;-68
2022/07/11 02:25:18;;;;;;;0.80;0.77;;;20.90;58.50;;;;;;5013637;28;20581;-68
2022/07/11 02:27:43;;;;;;;2.03;1.23;;;20.90;58.60;;;;;;5013228;28;20223;-67
2022/07/11 02:30:09;;;;;;;1.02;0.90;;;20.80;58.50;;;;;;5013965;28;20168;-67
2022/07/11 02:32:35;;;;;;;1.95;1.30;;;20.90;58.60;;;;;;5013276;28;20188;-66
2022/07/11 02:35:01;;;;;;;1.58;1.25;;;20.90;58.60;;;;;;5012492;28;20530;-67
2022/07/11 02:37:26;;;;;;;0.80;0.80;;;20.90;58.60;;;;;;5013323;28;20177;-67
2022/07/11 02:39:52;;;;;;;1.02;1.00;;;20.90;58.60;;;;;;5013176;28;20320;-68
2022/07/11 02:42:18;;;;;;;1.13;0.80;;;20.90;58.60;;;;;;5012986;28;20675;-70
2022/07/11 02:44:44;;;;;;;1.02;1.00;;;20.80;58.60;;;;;;5013358;28;20177;-66
2022/07/11 02:47:09;;;;;;;1.10;1.00;;;20.90;58.70;;;;;;5013381;28;20180;-66
2022/07/11 02:49:35;;;;;;;0.85;0.85;;;20.80;58.60;;;;;;5012757;28;20347;-66
2022/07/11 02:52:00;;;;;;;1.00;1.00;;;20.90;58.70;;;;;;5013192;28;20550;-66
2022/07/11 02:54:26;;;;;;;2.00;1.00;;;20.90;58.70;;;;;;5013458;28;20177;-66
2022/07/11 02:56:51;;;;;;;0.88;0.88;;;20.80;58.70;;;;;;5012266;28;20176;-67
2022/07/11 02:59:17;;;;;;;1.08;0.98;;;20.80;58.70;;;;;;5013097;28;20215;-68
2022/07/11 03:01:42;;;;;;;1.27;1.17;;;20.80;58.70;;;;;;5012958;28;20212;-66
2022/07/11 03:04:09;;;;;;;1.67;0.98;;;20.80;58.70;;;;;;5012171;28;20748;-66
2022/07/11 03:06:35;;;;;;;1.65;0.88;;;20.80;58.70;;;;;;5013362;28;20199;-67
2022/07/11 03:09:00;;;;;;;1.05;1.02;;;20.80;58.70;;;;;;5013301;28;20524;-66
2022/07/11 03:11:26;;;;;;;1.10;1.00;;;20.80;58.70;;;;;;5012280;28;20180;-66
2022/07/11 03:13:51;;;;;;;1.13;1.10;;;20.80;58.70;;;;;;5012787;28;20187;-67
2022/07/11 03:16:17;;;;;;;1.95;1.00;;;20.80;58.70;;;;;;5011807;28;20184;-68
2022/07/11 03:18:42;;;;;;;1.10;1.00;;;20.80;58.70;;;;;;5012535;28;20180;-68
2022/07/11 03:21:08;;;;;;;0.90;0.90;;;20.80;58.70;;;;;;5012711;28;20188;-67
2022/07/11 03:23:34;;;;;;;1.65;1.10;;;20.80;58.80;;;;;;5011934;28;20184;-67
2022/07/11 03:26:00;;;;;;;0.80;0.80;;;20.80;58.80;;;;;;5012454;28;20183;-66
2022/07/11 03:28:25;;;;;;;1.48;1.00;;;20.80;58.70;;;;;;5012751;28;20541;-67
2022/07/11 03:30:51;;;;;;;1.13;1.00;;;20.80;58.80;;;;;;5011616;28;20192;-66
2022/07/11 03:33:17;;;;;;;1.55;1.00;;;20.80;58.80;;;;;;5012994;28;20168;-68
2022/07/11 03:35:42;;;;;;;1.60;1.00;;;20.80;58.80;;;;;;5012343;28;20267;-67
2022/07/11 03:38:11;;;;;;;0.88;0.80;;;20.80;58.80;;;;;;5011612;28;20206;-67
2022/07/11 03:40:37;;;;;;;1.25;1.00;;;20.80;58.80;;;;;;5012776;28;20180;-67
2022/07/11 03:43:03;;;;;;;0.90;0.90;;;20.80;58.80;;;;;;5012321;28;20694;-67
2022/07/11 03:45:28;;;;;;;0.90;0.90;;;20.80;58.80;;;;;;5011681;28;20183;-67
2022/07/11 03:47:54;;;;;;;1.20;1.00;;;20.80;58.90;;;;;;5012302;28;20192;-66
2022/07/11 03:50:19;;;;;;;0.88;0.88;;;20.80;58.80;;;;;;5012423;28;20179;-66
2022/07/11 03:52:45;;;;;;;1.40;1.00;;;20.80;58.90;;;;;;5011564;28;20272;-66
2022/07/11 03:55:10;;;;;;;0.98;0.85;;;20.80;58.90;;;;;;5012049;28;20611;-67
2022/07/11 03:57:39;;;;;;;1.50;0.98;;;20.80;58.90;;;;;;5012341;28;20183;-67
2022/07/11 04:00:06;;;;;;;0.93;0.90;;;20.80;58.90;;;;;;5012521;28;20697;-66
2022/07/11 04:02:32;;;;;;;1.00;0.88;;;20.80;58.90;;;;;;4998656;28;20231;-67
2022/07/11 04:04:57;;;;;;;1.33;1.27;;;20.70;58.90;;;;;;5015778;28;20251;-66
2022/07/11 04:07:23;;;;;;;1.05;0.80;;;20.80;58.90;;;;;;5015422;28;20653;-67
2022/07/11 04:09:49;;;;;;;1.05;0.90;;;20.80;58.90;;;;;;5015907;28;20188;-67
2022/07/11 04:12:14;;;;;;;1.10;0.95;;;20.80;58.90;;;;;;5015832;28;20180;-67
2022/07/11 04:14:40;;;;;;;1.02;1.00;;;20.80;58.90;;;;;;5014888;28;20266;-67
2022/07/11 04:17:05;;;;;;;1.40;0.82;;;20.80;58.90;;;;;;5015789;28;20184;-67
2022/07/11 04:19:31;;;;;;;1.02;1.00;;;20.80;58.90;;;;;;5015085;28;20615;-68
2022/07/11 04:21:56;;;;;;;1.00;0.90;;;20.80;59.00;;;;;;5015458;28;20204;-68
2022/07/11 04:24:22;;;;;;;1.00;0.90;;;20.80;59.00;;;;;;5015739;28;20176;-69
2022/07/11 04:26:47;;;;;;;0.70;0.70;;;20.80;59.00;;;;;;5014829;28;20615;-67
2022/07/11 04:29:13;;;;;;;1.00;1.00;;;20.80;59.00;;;;;;5015736;28;20639;-69
2022/07/11 04:31:38;;;;;;;1.02;0.93;;;20.80;59.00;;;;;;5015320;28;20238;-67
2022/07/11 04:34:04;;;;;;;2.00;0.90;;;20.80;59.00;;;;;;5014873;28;20215;-67
2022/07/11 04:36:29;;;;;;;0.77;0.77;;;20.80;59.00;;;;;;5015787;28;20541;-68
2022/07/11 04:38:55;;;;;;;0.95;0.85;;;20.80;59.00;;;;;;5015394;28;20177;-68
2022/07/11 04:41:21;;;;;;;0.80;0.80;;;20.80;59.00;;;;;;5014811;28;20243;-68
2022/07/11 04:43:46;;;;;;;0.90;0.90;;;20.80;59.00;;;;;;5015140;28;20173;-67
2022/07/11 04:46:12;;;;;;;1.67;1.08;;;20.80;59.00;;;;;;5015343;28;20187;-67
2022/07/11 04:48:38;;;;;;;1.42;0.82;;;20.80;59.10;;;;;;5014803;28;20199;-67
2022/07/11 04:51:05;;;;;;;0.80;0.80;;;20.80;59.00;;;;;;5015272;28;20176;-66
2022/07/11 04:53:30;;;;;;;0.77;0.77;;;20.80;59.10;;;;;;5015314;28;20255;-67
2022/07/11 04:55:56;;;;;;;1.10;1.00;;;20.80;59.00;;;;;;5014135;28;20585;-66
2022/07/11 04:58:21;;;;;;;0.80;0.80;;;20.70;59.00;;;;;;5015172;28;20687;-67
2022/07/11 05:00:47;;;;;;;0.95;0.95;;;20.80;59.10;;;;;;5014855;28;20663;-67
2022/07/11 05:03:12;;;;;;;0.90;0.90;;;20.80;59.00;;;;;;5014348;28;20572;-67
2022/07/11 05:05:38;;;;;;;0.93;0.93;;;20.80;59.70;;;;;;5014634;28;20231;-68
2022/07/11 05:08:03;;;;;;;0.90;0.90;;;20.80;59.10;;;;;;5015030;28;20267;-67
2022/07/11 05:10:31;;;;;;;0.80;0.80;;;20.80;59.10;;;;;;5014264;28;20271;-68
2022/07/11 05:12:56;;;;;;;0.70;0.70;;;20.80;59.10;;;;;;5014434;28;20192;-68
2022/07/11 05:15:22;;;;;;;0.70;0.70;;;20.80;59.00;;;;;;5015054;28;20173;-69
2022/07/11 05:17:48;;;;;;;1.00;0.90;;;20.80;59.20;;;;;;5014047;28;20532;-68
2022/07/11 05:20:13;;;;;;;0.75;0.70;;;20.80;59.10;;;;;;5014867;28;20183;-68
2022/07/11 05:22:39;;;;;;;0.60;0.60;;;20.80;59.20;;;;;;5014477;28;20252;-68
2022/07/11 05:25:05;;;;;;;1.10;0.88;;;20.80;59.10;;;;;;5013940;28;20663;-67
2022/07/11 05:27:31;;;;;;;0.90;0.70;;;20.80;59.10;;;;;;5014613;28;20551;-67
2022/07/11 05:29:56;;;;;;;0.98;0.85;;;20.80;59.10;;;;;;5013525;28;20607;-67
2022/07/11 05:32:22;;;;;;;0.98;0.85;;;20.80;59.10;;;;;;5014467;28;20176;-67
2022/07/11 05:34:47;;;;;;;0.80;0.80;;;20.80;59.10;;;;;;5014418;28;20184;-67
2022/07/11 05:37:13;;;;;;;0.60;0.60;;;20.80;59.10;;;;;;5013633;28;20231;-68
2022/07/11 05:39:38;;;;;;;0.80;0.80;;;20.80;59.10;;;;;;5014286;28;20172;-68
2022/07/11 05:42:04;;;;;;;0.85;0.80;;;20.80;59.10;;;;;;5014123;28;20196;-67
2022/07/11 05:44:30;;;;;;;0.80;0.80;;;20.90;59.20;;;;;;5013500;28;20172;-68
2022/07/11 05:47:01;;;;;;;1.15;1.00;;;21.10;59.20;;;;;;5014211;28;20173;-67
2022/07/11 05:49:26;;;;;;;1.10;1.10;;;20.90;59.20;;;;;;5014345;28;20177;-67
2022/07/11 05:51:52;;;;;;;1.05;0.88;;;20.90;59.20;;;;;;4995892;28;20242;-66
2022/07/11 05:54:18;;;;;;;0.88;0.85;;;20.80;59.10;;;;;;5014054;28;20585;-67
2022/07/11 05:56:44;;;;;;;1.25;0.90;;;20.90;59.20;;;;;;5013757;28;20183;-67
2022/07/11 05:59:09;;;;;;;1.88;0.90;;;20.90;59.20;;;;;;5013531;28;20176;-67
2022/07/11 06:01:35;;;;;;;0.80;0.80;;;20.90;59.20;;;;;;5014057;28;20192;-68
2022/07/11 06:04:00;;;;;;;0.90;0.82;;;20.90;59.10;;;;;;5013586;28;20695;-67
2022/07/11 06:06:26;;;;;;;0.98;0.93;;;20.90;59.10;;;;;;5013384;28;20175;-68
2022/07/11 06:08:53;;;;;;;0.70;0.70;;;20.90;59.20;;;;;;5013649;28;20647;-67
2022/07/11 06:11:19;;;;;;;0.73;0.73;;;20.80;59.20;;;;;;5013649;28;20648;-68
2022/07/11 06:13:44;;;;;;;0.82;0.80;;;20.90;59.20;;;;;;5012914;28;20180;-67
2022/07/11 06:16:10;;;;;;;1.08;0.80;;;20.80;59.20;;;;;;5013717;28;20251;-68
2022/07/11 06:18:36;;;;;;;0.80;0.80;;;20.80;59.20;;;;;;5013694;28;20635;-68
2022/07/11 06:21:02;;;;;;;1.02;0.88;;;20.90;59.20;;;;;;5012707;28;20185;-68
2022/07/11 06:23:28;;;;;;;0.60;0.60;;;20.90;59.20;;;;;;5013080;28;20705;-67
2022/07/11 06:25:54;;;;;;;0.82;0.82;;;20.90;59.20;;;;;;5013327;28;20274;-67
2022/07/11 06:28:19;;;;;;;1.65;0.70;;;20.90;59.20;;;;;;5012510;28;20706;-67
2022/07/11 06:30:45;;;;;;;1.27;0.90;;;20.90;59.20;;;;;;5013325;28;20267;-67
2022/07/11 06:33:10;;;;;;;0.90;0.80;;;20.90;59.20;;;;;;5012606;28;20204;-67
2022/07/11 06:35:36;;;;;;;0.80;0.80;;;20.90;59.30;;;;;;5013229;28;20196;-68
2022/07/11 06:38:02;;;;;;;0.55;0.55;;;20.90;59.20;;;;;;5013134;28;20642;-68
2022/07/11 06:40:27;;;;;;;0.65;0.65;;;20.90;59.20;;;;;;5012481;28;20554;-68
2022/07/11 06:42:53;;;;;;;0.80;0.80;;;20.90;59.20;;;;;;5013211;28;20311;-68
2022/07/11 06:45:18;;;;;;;0.88;0.80;;;20.90;59.20;;;;;;5013425;28;20219;-69
2022/07/11 06:47:44;;;;;;;1.85;0.90;;;20.90;59.30;;;;;;5012343;28;20227;-63
2022/07/11 06:50:10;;;;;;;1.05;0.95;;;21.00;59.30;;;;;;5013249;28;20542;-64
2022/07/11 06:52:35;;;;;;;1.95;0.90;;;21.00;59.40;;;;;;5013076;28;20523;-64
2022/07/11 06:55:01;;;;;;;5.07;0.90;;;21.00;59.60;;;;;;5011950;28;20176;-65
2022/07/11 06:57:26;;;;;;;1.02;0.90;;;21.00;59.50;;;;;;5012964;28;20176;-65
2022/07/11 06:59:52;;;;;;;2.35;0.75;;;21.10;60.30;;;;;;5012894;28;20195;-65
2022/07/11 07:02:17;;;;;;;1.00;0.90;;;21.10;59.50;;;;;;5011997;28;20224;-65
2022/07/11 07:04:43;;;;;;;2.50;1.10;;;21.10;59.50;;;;;;5012704;28;20707;-64
2022/07/11 07:07:08;;;;;;;2.30;0.63;;;21.10;59.50;;;;;;5012800;28;20643;-65
2022/07/11 07:09:34;;;;;;;2.88;1.10;;;21.20;59.60;;;;;;5012123;28;20615;-64
2022/07/11 07:11:59;;;;;;;1.08;0.88;;;21.20;59.60;;;;;;5012457;28;20191;-64
2022/07/11 07:14:25;;;;;;;2.47;0.80;;;21.20;59.60;;;;;;5012623;28;20180;-65
2022/07/11 07:16:51;;;;;;;2.13;0.90;;;21.20;59.60;;;;;;5011990;28;20266;-65
2022/07/11 07:19:16;;;;;;;2.35;0.90;;;21.10;59.50;;;;;;5012637;28;20567;-66
2022/07/11 07:21:42;;;;;;;0.82;0.80;;;21.10;59.50;;;;;;5012375;28;20817;-65
2022/07/11 07:24:07;;;;;;;3.20;1.10;;;21.20;59.60;;;;;;5011772;28;20226;-65
2022/07/11 07:26:33;;;;;;;0.93;0.65;;;21.20;59.60;;;;;;5012473;28;20289;-65
2022/07/11 07:28:59;;;;;;;2.35;0.95;;;21.20;59.60;;;;;;5012280;28;20172;-65
2022/07/11 07:31:24;;;;;;;1.23;0.93;;;21.20;59.80;;;;;;5011819;28;20191;-65
2022/07/11 07:33:50;;;;;;;2.22;1.10;;;21.20;59.80;;;;;;5011973;28;20169;-65
2022/07/11 07:36:15;;;;;;;4.15;0.98;;;21.10;59.80;;;;;;5011751;28;20188;-66
2022/07/11 07:38:43;;;;;;;1.85;0.80;;;21.20;59.90;;;;;;5012055;28;20180;-66
2022/07/11 07:41:11;;;;;;;1.52;0.73;;;21.10;59.80;;;;;;5012106;28;20203;-66
2022/07/11 07:43:37;;;;;;;1.75;0.88;;;21.10;59.90;;;;;;5011955;28;20211;-65
2022/07/11 07:46:03;;;;;;;1.15;0.70;;;21.10;59.90;;;;;;5012088;28;20204;-64
2022/07/11 07:48:29;;;;;;;1.15;0.70;;;21.10;59.90;;;;;;5012394;28;20192;-64
2022/07/11 07:50:55;;;;;;;1.13;1.00;;;21.10;59.90;;;;;;5011462;28;20192;-64
2022/07/11 07:53:20;;;;;;;1.90;1.00;;;21.20;60.00;;;;;;5012150;28;20203;-65
2022/07/11 07:55:46;;;;;;;0.80;0.80;;;21.20;59.90;;;;;;5012044;28;20271;-65
2022/07/11 07:58:11;;;;;;;1.55;1.08;;;21.10;59.80;;;;;;5011726;28;20263;-65
2022/07/11 08:03:21;;;;;;;2.22;1.15;;;21.20;59.80;;;;;;5012216;28;20262;-65
2022/07/11 08:05:47;;;;;;;1.83;0.80;;;21.20;59.80;;;;;;5011124;28;20219;-65
2022/07/11 08:08:12;;;;;;;0.80;0.75;;;21.20;59.80;;;;;;5012022;28;20203;-66
2022/07/11 08:10:39;;;;;;;2.88;0.90;;;21.20;60.80;;;;;;5012147;28;20290;-65
2022/07/11 08:13:04;;;;;;;1.17;0.82;;;21.20;60.00;;;;;;5011579;28;20179;-66
2022/07/11 08:15:30;;;;;;;2.42;0.98;;;21.20;60.10;;;;;;5012102;28;20255;-66
2022/07/11 08:17:55;;;;;;;2.17;0.80;;;21.10;60.00;;;;;;5011937;28;20223;-66
2022/07/11 08:20:21;;;;;;;1.88;1.00;;;21.10;60.10;;;;;;5011399;28;20172;-66
2022/07/11 08:22:46;;;;;;;0.98;0.93;;;21.10;60.10;;;;;;5011524;28;20204;-65
2022/07/11 08:25:12;;;;;;;2.20;0.93;;;21.10;60.20;;;;;;5011885;28;20173;-65
2022/07/11 08:27:37;;;;;;;1.58;0.98;;;21.10;61.00;;;;;;5011117;28;20181;-65
2022/07/11 08:30:05;;;;;;;0.77;0.60;;;21.10;60.20;;;;;;5011905;28;20172;-65
2022/07/11 08:32:31;;;;;;;2.35;0.95;;;21.10;60.20;;;;;;5012176;28;20272;-65
2022/07/11 08:34:56;;;;;;;2.13;0.88;;;21.10;60.20;;;;;;5010801;28;20675;-65
2022/07/11 08:37:22;;;;;;;0.90;0.80;;;21.10;60.20;;;;;;5011759;28;20177;-66
2022/07/11 08:39:47;;;;;;;0.85;0.70;;;21.10;60.20;;;;;;5011191;28;20173;-65
2022/07/11 08:42:13;;;;;;;0.93;0.80;;;21.10;60.30;;;;;;5011728;28;20275;-65
2022/07/11 08:44:39;;;;;;;3.45;0.80;;;21.10;60.40;;;;;;5011733;28;20252;-65
2022/07/11 08:47:05;;;;;;;0.70;0.70;;;21.10;60.30;;;;;;5013680;28;20172;-65
2022/07/11 08:49:31;;;;;;;1.65;0.98;;;21.10;60.40;;;;;;5015362;28;20183;-65
2022/07/11 08:51:56;;;;;;;1.10;0.80;;;21.10;60.30;;;;;;4981403;28;20659;-64
2022/07/11 08:54:22;;;;;;;2.25;0.88;;;21.10;60.30;;;;;;4997169;28;20693;-65
2022/07/11 08:56:49;;;;;;;0.75;0.70;;;21.10;60.30;;;;;;5015122;28;20666;-65
2022/07/11 08:59:17;;;;;;;2.03;1.27;;;21.10;60.30;;;;;;5015206;28;20177;-65
2022/07/11 09:01:45;;;;;;;1.52;0.70;;;21.20;60.30;;;;;;4996760;28;20246;-65
2022/07/11 09:04:11;;;;;;;0.82;0.50;;;21.20;60.30;;;;;;4997430;28;20220;-65
2022/07/11 09:06:37;;;;;;;2.78;0.80;;;21.20;60.30;;;;;;5015026;28;20549;-66
2022/07/11 09:09:02;;;;;;;0.90;0.90;;;21.20;60.20;;;;;;5014201;28;20607;-66
2022/07/11 09:11:28;;;;;;;1.98;0.98;;;21.20;60.20;;;;;;5015079;28;20187;-65
2022/07/11 09:13:54;;;;;;;1.58;0.80;;;21.30;60.20;;;;;;5014737;28;20191;-65
2022/07/11 09:16:20;;;;;;;1.63;0.60;;;21.30;60.20;;;;;;5014126;28;20706;-66
2022/07/11 09:18:45;;;;;;;0.63;0.60;;;21.30;60.10;;;;;;5014680;28;20196;-65
2022/07/11 09:26:44;;;;;;;1.48;0.93;;;21.30;60.00;;;;;;5014582;28;20192;-65
2022/07/11 09:29:20;;;;;;;1.52;0.63;;;21.40;60.00;;;;;;5013828;28;20272;-65
2022/07/11 09:31:46;;;;;;;2.45;0.85;;;21.40;60.00;;;;;;5014648;28;20196;-65
2022/07/11 09:34:13;;;;;;;0.60;0.60;;;21.40;60.10;;;;;;5014595;28;20172;-65
2022/07/11 09:36:39;;;;;;;1.08;0.60;;;21.30;60.20;;;;;;5013760;28;20180;-65
2022/07/11 09:39:06;;;;;;;0.98;0.70;;;21.30;60.20;;;;;;5014464;28;20183;-66
2022/07/11 09:41:36;;;;;;;1.55;0.88;;;21.30;60.40;;;;;;5014235;28;20223;-65
2022/07/11 09:44:11;;;;;;;0.88;0.70;;;21.30;60.50;;;;;;5013365;28;20567;-65
2022/07/11 09:46:37;;;;;;;1.65;0.70;;;21.20;60.40;;;;;;5014181;28;20546;-65
2022/07/11 09:49:02;;;;;;;0.98;0.68;;;21.20;60.40;;;;;;5013849;28;20183;-64
2022/07/11 09:51:28;;;;;;;1.35;0.75;;;21.20;60.40;;;;;;5013396;28;20181;-64
2022/07/11 09:53:57;;;;;;;1.98;1.00;;;21.30;60.40;;;;;;4996668;28;20226;-65
2022/07/11 09:56:42;;;;;;;1.52;0.80;;;21.30;60.30;;;;;;5014054;28;20180;-65
2022/07/11 09:59:10;;;;;;;0.60;0.60;;;21.40;60.30;;;;;;5012533;28;20689;-64
2022/07/11 10:01:36;;;;;;;1.67;0.90;;;21.40;60.20;;;;;;5014078;28;20211;-65
2022/07/11 10:04:01;;;;;;;0.70;0.68;;;21.40;60.10;;;;;;5013306;28;20225;-65
2022/07/11 10:06:27;;;;;;;1.08;0.88;;;21.40;60.00;;;;;;5013649;28;20214;-66
2022/07/11 10:08:53;;;;;;;0.75;0.65;;;21.40;60.00;;;;;;5013660;28;20242;-65
2022/07/11 10:11:19;;;;;;;0.80;0.70;;;21.40;59.90;;;;;;5013510;28;20255;-65
2022/07/11 10:13:44;;;;;;;1.20;0.70;;;21.40;60.00;;;;;;5013808;28;20184;-66
2022/07/11 10:16:23;;;;;;;1.48;0.80;;;21.30;60.00;;;;;;5013439;28;20169;-66
2022/07/11 10:19:03;;;;;;;0.73;0.73;;;21.30;60.20;;;;;;4995572;28;20184;-65
2022/07/11 10:21:42;;;;;;;0.70;0.70;;;21.30;60.30;;;;;;5013492;28;20181;-66
2022/07/11 10:24:26;;;;;;;0.82;0.60;;;21.30;60.40;;;;;;4980827;28;20215;-65
2022/07/11 10:26:54;;;;;;;0.73;0.63;;;21.30;60.50;;;;;;5012575;28;20722;-65
2022/07/11 10:29:24;;;;;;;1.25;0.80;;;21.30;61.30;;;;;;5013358;28;20165;-65
2022/07/11 10:32:05;;;;;;;0.60;0.50;;;21.30;60.50;;;;;;4979851;28;20176;-65
2022/07/11 10:34:30;;;;;;;2.53;0.90;;;21.30;60.60;;;;;;5012799;28;20180;-66
2022/07/11 10:37:03;;;;;;;5.10;1.00;;;21.30;60.90;;;;;;5013051;28;20238;-66
2022/07/11 10:39:29;;;;;;;1.92;0.60;;;21.30;60.60;;;;;;5014674;28;20181;-65
2022/07/11 10:41:56;;;;;;;4.25;0.75;;;21.40;60.60;;;;;;5012925;28;20604;-64
2022/07/11 10:44:21;;;;;;;2.20;0.90;;;21.40;60.70;;;;;;5013300;28;20226;-66
2022/07/11 10:46:47;;;;;;;5.97;1.13;;;21.50;60.50;;;;;;4994933;28;20177;-65
2022/07/11 10:49:12;;;;;;;4.43;1.42;;;21.50;60.70;;;;;;5013076;28;20238;-64
2022/07/11 10:51:44;;;;;;;3.58;1.00;;;21.60;60.70;;;;;;5013064;28;20183;-64
2022/07/11 10:54:36;;;;;;;3.47;0.88;;;21.60;60.60;;;;;;5012305;28;20603;-64
2022/07/11 10:57:11;;;;;;;7.15;0.95;;;21.60;60.60;;;;;;4995141;28;20196;-66
2022/07/11 10:59:55;;;;;;;1.58;0.60;;;21.70;60.50;;;;;;4995657;28;20510;-65
2022/07/11 11:02:20;;;;;;;5.15;1.13;;;21.60;60.60;;;;;;5012089;28;20380;-69
2022/07/11 11:04:49;;;;;;;6.13;1.00;;;21.60;60.50;;;;;;4994885;28;20698;-68
2022/07/11 11:07:36;;;;;;;3.88;0.73;;;21.50;60.50;;;;;;5012564;28;20181;-68
2022/07/11 11:10:33;;;;;;;1.45;0.77;;;21.50;60.80;;;;;;5012470;28;20184;-66
2022/07/11 11:13:05;;;;;;;3.53;0.90;;;21.50;60.60;;;;;;5012446;28;20193;-68
2022/07/11 11:15:42;;;;;;;2.15;0.80;;;21.50;60.80;;;;;;5012029;28;20184;-67
2022/07/11 11:18:23;;;;;;;2.08;0.90;;;21.50;60.90;;;;;;5012593;28;20657;-68
2022/07/11 11:21:00;;;;;;;1.98;0.70;;;21.50;60.80;;;;;;5012417;28;20183;-66
2022/07/11 11:23:30;;;;;;;4.10;0.90;;;21.50;60.80;;;;;;5011772;28;20219;-65
2022/07/11 11:26:05;;;;;;;4.13;0.82;;;21.50;60.70;;;;;;4979155;28;20215;-67
2022/07/11 11:28:30;;;;;;;2.17;0.70;;;21.60;60.70;;;;;;4995255;28;20250;-67
2022/07/11 11:30:57;;;;;;;3.55;1.00;;;21.70;60.50;;;;;;5012187;28;20615;-64
2022/07/11 11:33:25;;;;;;;2.28;0.70;;;21.70;60.30;;;;;;5012720;28;20184;-65
2022/07/11 11:36:07;;;;;;;4.55;1.10;;;21.80;60.40;;;;;;5011627;28;20184;-67
2022/07/11 11:38:33;;;;;;;3.33;0.65;;;21.80;60.30;;;;;;5012397;28;20642;-68
2022/07/11 11:40:58;;;;;;;3.28;0.98;;;21.70;60.30;;;;;;5012306;28;20646;-67
2022/07/11 11:43:25;;;;;;;3.40;0.60;;;21.70;60.30;;;;;;5011828;28;20282;-69
2022/07/11 11:45:51;;;;;;;1.10;0.73;;;21.70;60.40;;;;;;5012322;28;20181;-67
2022/07/11 11:48:33;;;;;;;1.90;0.70;;;21.60;60.50;;;;;;5012184;28;20177;-67
2022/07/11 11:51:08;;;;;;;1.63;0.80;;;21.60;60.60;;;;;;5011324;28;20192;-66
2022/07/11 11:53:39;;;;;;;3.58;0.95;;;21.50;60.60;;;;;;5012461;28;20179;-67
2022/07/11 11:56:15;;;;;;;1.27;0.70;;;21.50;60.70;;;;;;5012393;28;20176;-67
2022/07/11 11:58:41;;;;;;;2.90;0.80;;;21.50;60.80;;;;;;5011530;28;20171;-67
2022/07/11 12:01:07;;;;;;;2.85;0.98;;;21.50;60.90;;;;;;5012276;28;20183;-69
2022/07/11 12:03:53;;;;;;;3.30;0.73;;;21.50;60.90;;;;;;5011849;28;20211;-67
2022/07/11 12:06:21;;;;;;;3.97;0.90;;;21.50;60.90;;;;;;5012265;28;20184;-68
2022/07/11 12:08:47;;;;;;;2.50;0.70;;;21.40;60.90;;;;;;5012096;28;20183;-68
2022/07/11 12:11:14;;;;;;;2.42;0.60;;;21.40;61.00;;;;;;5011333;28;20204;-67
2022/07/11 12:13:40;;;;;;;3.13;0.80;;;21.40;60.90;;;;;;5011862;28;20267;-67
2022/07/11 12:19:00;;;;;;;4.78;0.63;;;21.50;61.00;;;;;;5011204;28;20210;-67
2022/07/11 12:21:27;;;;;;;2.20;0.70;;;21.50;61.20;;;;;;5013714;28;20176;-68
2022/07/11 12:23:53;;;;;;;3.08;0.80;;;21.60;60.90;;;;;;5015573;28;20695;-67
2022/07/11 12:26:18;;;;;;;2.30;0.52;;;21.60;60.90;;;;;;4997460;28;20269;-68
2022/07/11 12:29:19;;;;;;;3.75;0.70;;;21.60;60.80;;;;;;5015531;28;20322;-66
2022/07/11 12:31:48;;;;;;;2.17;0.70;;;21.70;60.80;;;;;;4993363;28;20185;-66
2022/07/11 12:34:36;;;;;;;1.48;0.50;;;21.70;60.90;;;;;;5015527;28;20187;-67
2022/07/11 12:37:05;;;;;;;2.22;0.70;;;21.70;60.90;;;;;;5009651;28;20188;-68
2022/07/11 12:39:32;;;;;;;1.80;0.70;;;21.70;60.80;;;;;;4997321;28;20603;-68
2022/07/11 12:41:58;;;;;;;1.58;1.02;;;21.70;60.90;;;;;;5015277;28;20266;-67
2022/07/11 12:47:08;;;;;;;4.03;1.23;;;21.70;60.80;;;;;;5014689;28;20252;-63
2022/07/11 12:49:33;;;;;;;0.95;0.70;;;21.80;60.90;;;;;;5015641;28;20200;-65
2022/07/11 12:52:00;;;;;;;3.47;0.57;;;21.80;60.80;;;;;;5015177;28;20261;-65
2022/07/11 12:54:30;;;;;;;6.30;1.33;;;21.80;60.60;;;;;;5014417;28;20181;-65
2022/07/11 12:56:58;;;;;;;3.00;0.70;;;21.80;60.60;;;;;;5015125;28;20188;-65
2022/07/11 12:59:25;;;;;;;0.70;0.70;;;21.80;60.60;;;;;;5015197;28;20181;-67
2022/07/11 13:02:03;;;;;;;2.25;0.70;;;21.80;60.50;;;;;;5014066;28;20580;-65